sensor_id;sensor_type;location;lat;lon;timestamp;P1;durP1;ratioP1;P2;durP2;ratioP2
18499;SDS011;9379;52.134;11.576;2022-10-04T00:00:28;4.13;;;1.63;;
18499;SDS011;9379;52.134;11.576;2022-10-04T00:03:07;3.70;;;2.05;;
18499;SDS011;9379;52.134;11.576;2022-10-04T00:05:36;2.67;;;1.33;;
18499;SDS011;9379;52.134;11.576;2022-10-04T00:08:11;4.00;;;1.80;;
18499;SDS011;9379;52.134;11.576;2022-10-04T00:10:46;2.83;;;1.23;;
18499;SDS011;9379;52.134;11.576;2022-10-04T00:13:14;3.90;;;2.45;;
18499;SDS011;9379;52.134;11.576;2022-10-04T00:15:48;5.88;;;2.33;;
18499;SDS011;9379;52.134;11.576;2022-10-04T00:18:20;2.22;;;1.88;;
18499;SDS011;9379;52.134;11.576;2022-10-04T00:20:57;2.03;;;1.52;;
18499;SDS011;9379;52.134;11.576;2022-10-04T00:23:27;7.82;;;2.55;;
18499;SDS011;9379;52.134;11.576;2022-10-04T00:26:08;2.05;;;1.25;;
18499;SDS011;9379;52.134;11.576;2022-10-04T00:28:43;2.05;;;1.80;;
18499;SDS011;9379;52.134;11.576;2022-10-04T00:31:13;2.45;;;1.58;;
18499;SDS011;9379;52.134;11.576;2022-10-04T00:33:43;4.72;;;2.13;;
18499;SDS011;9379;52.134;11.576;2022-10-04T00:39:13;1.67;;;1.40;;
18499;SDS011;9379;52.134;11.576;2022-10-04T00:41:56;2.20;;;1.35;;
18499;SDS011;9379;52.134;11.576;2022-10-04T00:44:30;1.75;;;1.40;;
18499;SDS011;9379;52.134;11.576;2022-10-04T00:47:11;3.92;;;1.08;;
18499;SDS011;9379;52.134;11.576;2022-10-04T00:49:41;4.00;;;1.38;;
18499;SDS011;9379;52.134;11.576;2022-10-04T00:52:11;2.85;;;2.65;;
18499;SDS011;9379;52.134;11.576;2022-10-04T00:54:45;5.25;;;1.80;;
18499;SDS011;9379;52.134;11.576;2022-10-04T00:57:16;6.05;;;3.00;;
18499;SDS011;9379;52.134;11.576;2022-10-04T00:59:47;2.50;;;2.30;;
18499;SDS011;9379;52.134;11.576;2022-10-04T01:02:17;2.15;;;1.55;;
18499;SDS011;9379;52.134;11.576;2022-10-04T01:04:48;3.03;;;1.38;;
18499;SDS011;9379;52.134;11.576;2022-10-04T01:07:18;2.35;;;1.38;;
18499;SDS011;9379;52.134;11.576;2022-10-04T01:09:50;4.93;;;1.67;;
18499;SDS011;9379;52.134;11.576;2022-10-04T01:12:25;4.18;;;1.25;;
18499;SDS011;9379;52.134;11.576;2022-10-04T01:15:02;2.88;;;2.28;;
18499;SDS011;9379;52.134;11.576;2022-10-04T01:17:32;1.90;;;1.10;;
18499;SDS011;9379;52.134;11.576;2022-10-04T01:20:00;3.65;;;1.65;;
18499;SDS011;9379;52.134;11.576;2022-10-04T01:22:34;2.65;;;1.38;;
18499;SDS011;9379;52.134;11.576;2022-10-04T01:25:03;3.40;;;2.05;;
18499;SDS011;9379;52.134;11.576;2022-10-04T01:27:32;1.73;;;1.10;;
18499;SDS011;9379;52.134;11.576;2022-10-04T01:30:02;1.35;;;1.25;;
18499;SDS011;9379;52.134;11.576;2022-10-04T01:32:33;2.90;;;1.80;;
18499;SDS011;9379;52.134;11.576;2022-10-04T01:35:00;1.40;;;1.10;;
18499;SDS011;9379;52.134;11.576;2022-10-04T01:37:27;2.13;;;1.15;;
18499;SDS011;9379;52.134;11.576;2022-10-04T01:39:55;5.05;;;1.60;;
18499;SDS011;9379;52.134;11.576;2022-10-04T01:42:23;1.63;;;1.52;;
18499;SDS011;9379;52.134;11.576;2022-10-04T01:44:55;4.90;;;2.40;;
18499;SDS011;9379;52.134;11.576;2022-10-04T01:47:28;2.90;;;1.30;;
18499;SDS011;9379;52.134;11.576;2022-10-04T01:49:58;3.55;;;1.48;;
18499;SDS011;9379;52.134;11.576;2022-10-04T01:52:30;1.65;;;1.55;;
18499;SDS011;9379;52.134;11.576;2022-10-04T01:55:02;4.70;;;1.10;;
18499;SDS011;9379;52.134;11.576;2022-10-04T01:57:35;1.33;;;1.05;;
18499;SDS011;9379;52.134;11.576;2022-10-04T02:00:07;7.38;;;1.67;;
18499;SDS011;9379;52.134;11.576;2022-10-04T02:02:39;2.65;;;1.15;;
18499;SDS011;9379;52.134;11.576;2022-10-04T02:05:11;1.20;;;1.10;;
18499;SDS011;9379;52.134;11.576;2022-10-04T02:07:41;2.30;;;1.30;;
18499;SDS011;9379;52.134;11.576;2022-10-04T02:10:11;3.67;;;1.75;;
18499;SDS011;9379;52.134;11.576;2022-10-04T02:12:44;12.10;;;2.30;;
18499;SDS011;9379;52.134;11.576;2022-10-04T02:15:14;1.58;;;1.48;;
18499;SDS011;9379;52.134;11.576;2022-10-04T02:17:44;4.78;;;1.30;;
18499;SDS011;9379;52.134;11.576;2022-10-04T02:20:13;5.60;;;1.65;;
18499;SDS011;9379;52.134;11.576;2022-10-04T02:22:41;2.38;;;1.50;;
18499;SDS011;9379;52.134;11.576;2022-10-04T02:25:11;1.00;;;1.00;;
18499;SDS011;9379;52.134;11.576;2022-10-04T02:27:39;2.53;;;1.92;;
18499;SDS011;9379;52.134;11.576;2022-10-04T02:30:07;2.38;;;2.25;;
18499;SDS011;9379;52.134;11.576;2022-10-04T02:32:35;2.45;;;1.25;;
18499;SDS011;9379;52.134;11.576;2022-10-04T02:35:21;4.25;;;1.70;;
18499;SDS011;9379;52.134;11.576;2022-10-04T02:37:52;2.90;;;1.45;;
18499;SDS011;9379;52.134;11.576;2022-10-04T02:40:27;2.17;;;1.20;;
18499;SDS011;9379;52.134;11.576;2022-10-04T02:42:57;1.23;;;0.93;;
18499;SDS011;9379;52.134;11.576;2022-10-04T02:45:31;2.10;;;1.52;;
18499;SDS011;9379;52.134;11.576;2022-10-04T02:48:12;1.50;;;1.17;;
18499;SDS011;9379;52.134;11.576;2022-10-04T02:50:51;2.85;;;1.48;;
18499;SDS011;9379;52.134;11.576;2022-10-04T02:53:22;2.55;;;1.08;;
18499;SDS011;9379;52.134;11.576;2022-10-04T02:55:53;3.90;;;2.10;;
18499;SDS011;9379;52.134;11.576;2022-10-04T02:58:21;3.08;;;1.80;;
18499;SDS011;9379;52.134;11.576;2022-10-04T03:00:50;2.10;;;1.60;;
18499;SDS011;9379;52.134;11.576;2022-10-04T03:03:21;5.15;;;1.50;;
18499;SDS011;9379;52.134;11.576;2022-10-04T03:05:55;3.47;;;2.17;;
18499;SDS011;9379;52.134;11.576;2022-10-04T03:08:26;3.70;;;1.15;;
18499;SDS011;9379;52.134;11.576;2022-10-04T03:10:58;2.03;;;1.55;;
18499;SDS011;9379;52.134;11.576;2022-10-04T03:13:27;1.52;;;1.42;;
18499;SDS011;9379;52.134;11.576;2022-10-04T03:15:54;2.28;;;1.48;;
18499;SDS011;9379;52.134;11.576;2022-10-04T03:18:21;7.43;;;2.78;;
18499;SDS011;9379;52.134;11.576;2022-10-04T03:20:48;1.52;;;1.10;;
18499;SDS011;9379;52.134;11.576;2022-10-04T03:23:15;51.50;;;25.63;;
18499;SDS011;9379;52.134;11.576;2022-10-04T03:25:46;48.42;;;32.10;;
18499;SDS011;9379;52.134;11.576;2022-10-04T03:28:18;28.88;;;17.30;;
18499;SDS011;9379;52.134;11.576;2022-10-04T03:30:46;9.52;;;7.45;;
18499;SDS011;9379;52.134;11.576;2022-10-04T03:33:15;5.47;;;4.97;;
18499;SDS011;9379;52.134;11.576;2022-10-04T03:35:45;5.90;;;2.40;;
18499;SDS011;9379;52.134;11.576;2022-10-04T03:38:14;2.17;;;1.98;;
18499;SDS011;9379;52.134;11.576;2022-10-04T03:40:45;3.85;;;1.92;;
18499;SDS011;9379;52.134;11.576;2022-10-04T03:43:18;9.05;;;2.88;;
18499;SDS011;9379;52.134;11.576;2022-10-04T03:45:48;3.22;;;1.58;;
18499;SDS011;9379;52.134;11.576;2022-10-04T03:48:20;3.17;;;1.88;;
18499;SDS011;9379;52.134;11.576;2022-10-04T03:50:53;1.95;;;1.30;;
18499;SDS011;9379;52.134;11.576;2022-10-04T03:53:24;4.03;;;3.63;;
18499;SDS011;9379;52.134;11.576;2022-10-04T03:55:54;2.08;;;1.98;;
18499;SDS011;9379;52.134;11.576;2022-10-04T03:58:24;1.73;;;1.63;;
18499;SDS011;9379;52.134;11.576;2022-10-04T04:00:57;2.45;;;2.25;;
18499;SDS011;9379;52.134;11.576;2022-10-04T04:03:31;4.13;;;2.60;;
18499;SDS011;9379;52.134;11.576;2022-10-04T04:06:14;2.22;;;1.60;;
18499;SDS011;9379;52.134;11.576;2022-10-04T04:08:44;3.30;;;2.45;;
18499;SDS011;9379;52.134;11.576;2022-10-04T04:11:16;4.80;;;2.80;;
18499;SDS011;9379;52.134;11.576;2022-10-04T04:13:49;4.80;;;3.35;;
18499;SDS011;9379;52.134;11.576;2022-10-04T04:16:23;2.72;;;1.73;;
18499;SDS011;9379;52.134;11.576;2022-10-04T04:18:51;3.25;;;1.17;;
18499;SDS011;9379;52.134;11.576;2022-10-04T04:21:19;4.57;;;2.00;;
18499;SDS011;9379;52.134;11.576;2022-10-04T04:23:49;2.33;;;2.13;;
18499;SDS011;9379;52.134;11.576;2022-10-04T04:26:20;1.75;;;1.52;;
18499;SDS011;9379;52.134;11.576;2022-10-04T04:28:53;2.05;;;1.70;;
18499;SDS011;9379;52.134;11.576;2022-10-04T04:31:24;2.78;;;2.58;;
18499;SDS011;9379;52.134;11.576;2022-10-04T04:33:55;3.22;;;1.30;;
18499;SDS011;9379;52.134;11.576;2022-10-04T04:36:24;5.95;;;1.98;;
18499;SDS011;9379;52.134;11.576;2022-10-04T04:38:52;1.73;;;1.63;;
18499;SDS011;9379;52.134;11.576;2022-10-04T04:41:37;4.43;;;1.73;;
18499;SDS011;9379;52.134;11.576;2022-10-04T04:44:10;5.18;;;2.05;;
18499;SDS011;9379;52.134;11.576;2022-10-04T04:46:42;6.03;;;1.75;;
18499;SDS011;9379;52.134;11.576;2022-10-04T04:49:09;1.63;;;1.52;;
18499;SDS011;9379;52.134;11.576;2022-10-04T04:51:37;6.00;;;2.75;;
18499;SDS011;9379;52.134;11.576;2022-10-04T04:54:06;3.40;;;2.28;;
18499;SDS011;9379;52.134;11.576;2022-10-04T04:56:33;2.60;;;1.70;;
18499;SDS011;9379;52.134;11.576;2022-10-04T04:59:01;4.45;;;1.42;;
18499;SDS011;9379;52.134;11.576;2022-10-04T05:01:33;2.42;;;1.73;;
18499;SDS011;9379;52.134;11.576;2022-10-04T05:04:01;3.50;;;2.72;;
18499;SDS011;9379;52.134;11.576;2022-10-04T05:06:29;2.60;;;1.45;;
18499;SDS011;9379;52.134;11.576;2022-10-04T05:08:58;1.83;;;1.73;;
18499;SDS011;9379;52.134;11.576;2022-10-04T05:11:26;1.83;;;1.58;;
18499;SDS011;9379;52.134;11.576;2022-10-04T05:13:55;1.65;;;1.55;;
18499;SDS011;9379;52.134;11.576;2022-10-04T05:16:27;2.05;;;1.88;;
18499;SDS011;9379;52.134;11.576;2022-10-04T05:19:03;1.73;;;1.48;;
18499;SDS011;9379;52.134;11.576;2022-10-04T05:21:33;3.88;;;1.80;;
18499;SDS011;9379;52.134;11.576;2022-10-04T05:24:06;1.88;;;1.77;;
18499;SDS011;9379;52.134;11.576;2022-10-04T05:26:36;3.78;;;1.92;;
18499;SDS011;9379;52.134;11.576;2022-10-04T05:29:06;2.47;;;1.58;;
18499;SDS011;9379;52.134;11.576;2022-10-04T05:31:38;4.13;;;1.90;;
18499;SDS011;9379;52.134;11.576;2022-10-04T05:34:16;1.90;;;1.50;;
18499;SDS011;9379;52.134;11.576;2022-10-04T05:36:53;3.40;;;2.10;;
18499;SDS011;9379;52.134;11.576;2022-10-04T05:39:47;2.40;;;1.70;;
18499;SDS011;9379;52.134;11.576;2022-10-04T05:42:23;3.33;;;1.88;;
18499;SDS011;9379;52.134;11.576;2022-10-04T05:44:55;3.13;;;1.83;;
18499;SDS011;9379;52.134;11.576;2022-10-04T05:47:24;2.65;;;1.73;;
18499;SDS011;9379;52.134;11.576;2022-10-04T05:49:56;1.95;;;1.83;;
18499;SDS011;9379;52.134;11.576;2022-10-04T05:52:26;2.88;;;1.65;;
18499;SDS011;9379;52.134;11.576;2022-10-04T05:57:56;5.90;;;2.10;;
18499;SDS011;9379;52.134;11.576;2022-10-04T06:00:33;3.00;;;1.83;;
18499;SDS011;9379;52.134;11.576;2022-10-04T06:03:25;2.83;;;1.95;;
18499;SDS011;9379;52.134;11.576;2022-10-04T06:06:06;4.40;;;2.33;;
18499;SDS011;9379;52.134;11.576;2022-10-04T06:08:42;1.50;;;1.40;;
18499;SDS011;9379;52.134;11.576;2022-10-04T06:11:25;3.75;;;1.67;;
18499;SDS011;9379;52.134;11.576;2022-10-04T06:14:10;1.33;;;1.23;;
18499;SDS011;9379;52.134;11.576;2022-10-04T06:16:56;1.40;;;1.10;;
18499;SDS011;9379;52.134;11.576;2022-10-04T06:19:44;1.35;;;1.20;;
18499;SDS011;9379;52.134;11.576;2022-10-04T06:22:28;3.17;;;1.55;;
18499;SDS011;9379;52.134;11.576;2022-10-04T06:24:59;1.92;;;1.80;;
18499;SDS011;9379;52.134;11.576;2022-10-04T06:27:30;2.85;;;2.03;;
18499;SDS011;9379;52.134;11.576;2022-10-04T06:30:02;4.05;;;1.88;;
18499;SDS011;9379;52.134;11.576;2022-10-04T06:32:46;1.92;;;1.38;;
18499;SDS011;9379;52.134;11.576;2022-10-04T06:35:41;1.83;;;1.27;;
18499;SDS011;9379;52.134;11.576;2022-10-04T06:38:23;3.53;;;1.73;;
18499;SDS011;9379;52.134;11.576;2022-10-04T06:41:19;4.50;;;2.88;;
18499;SDS011;9379;52.134;11.576;2022-10-04T06:44:03;2.92;;;1.80;;
18499;SDS011;9379;52.134;11.576;2022-10-04T06:46:41;5.35;;;2.55;;
18499;SDS011;9379;52.134;11.576;2022-10-04T06:49:18;4.63;;;1.45;;
18499;SDS011;9379;52.134;11.576;2022-10-04T06:52:08;5.47;;;2.08;;
18499;SDS011;9379;52.134;11.576;2022-10-04T06:54:49;2.95;;;1.77;;
18499;SDS011;9379;52.134;11.576;2022-10-04T06:57:38;2.55;;;1.40;;
18499;SDS011;9379;52.134;11.576;2022-10-04T07:00:23;5.10;;;1.85;;
18499;SDS011;9379;52.134;11.576;2022-10-04T07:02:51;2.88;;;1.90;;
18499;SDS011;9379;52.134;11.576;2022-10-04T07:05:27;6.45;;;2.35;;
18499;SDS011;9379;52.134;11.576;2022-10-04T07:08:01;3.17;;;1.77;;
18499;SDS011;9379;52.134;11.576;2022-10-04T07:10:44;7.75;;;3.42;;
18499;SDS011;9379;52.134;11.576;2022-10-04T07:13:20;2.55;;;2.05;;
18499;SDS011;9379;52.134;11.576;2022-10-04T07:15:58;1.83;;;1.55;;
18499;SDS011;9379;52.134;11.576;2022-10-04T07:18:31;1.95;;;1.75;;
18499;SDS011;9379;52.134;11.576;2022-10-04T07:21:03;3.30;;;1.30;;
18499;SDS011;9379;52.134;11.576;2022-10-04T07:23:35;4.47;;;1.15;;
18499;SDS011;9379;52.134;11.576;2022-10-04T07:26:06;3.28;;;2.33;;
18499;SDS011;9379;52.134;11.576;2022-10-04T07:28:44;6.50;;;3.30;;
18499;SDS011;9379;52.134;11.576;2022-10-04T07:31:31;4.22;;;1.75;;
18499;SDS011;9379;52.134;11.576;2022-10-04T07:34:01;1.98;;;1.08;;
18499;SDS011;9379;52.134;11.576;2022-10-04T07:36:37;3.15;;;2.85;;
18499;SDS011;9379;52.134;11.576;2022-10-04T07:39:10;4.03;;;2.42;;
18499;SDS011;9379;52.134;11.576;2022-10-04T07:41:44;3.70;;;1.98;;
18499;SDS011;9379;52.134;11.576;2022-10-04T07:44:18;5.45;;;2.65;;
18499;SDS011;9379;52.134;11.576;2022-10-04T07:46:54;6.50;;;2.67;;
18499;SDS011;9379;52.134;11.576;2022-10-04T07:49:25;4.82;;;1.83;;
18499;SDS011;9379;52.134;11.576;2022-10-04T07:52:01;4.38;;;2.38;;
18499;SDS011;9379;52.134;11.576;2022-10-04T07:54:37;4.78;;;2.50;;
18499;SDS011;9379;52.134;11.576;2022-10-04T07:57:13;2.63;;;1.73;;
18499;SDS011;9379;52.134;11.576;2022-10-04T07:59:51;2.38;;;2.15;;
18499;SDS011;9379;52.134;11.576;2022-10-04T08:02:26;2.13;;;1.80;;
18499;SDS011;9379;52.134;11.576;2022-10-04T08:05:02;6.00;;;1.73;;
18499;SDS011;9379;52.134;11.576;2022-10-04T08:07:43;3.30;;;1.83;;
18499;SDS011;9379;52.134;11.576;2022-10-04T08:10:24;3.38;;;1.70;;
18499;SDS011;9379;52.134;11.576;2022-10-04T08:13:04;5.63;;;3.22;;
18499;SDS011;9379;52.134;11.576;2022-10-04T08:15:41;8.35;;;3.50;;
18499;SDS011;9379;52.134;11.576;2022-10-04T08:21:04;6.22;;;2.70;;
18499;SDS011;9379;52.134;11.576;2022-10-04T08:23:40;3.90;;;1.90;;
18499;SDS011;9379;52.134;11.576;2022-10-04T08:26:21;10.55;;;3.40;;
18499;SDS011;9379;52.134;11.576;2022-10-04T08:29:04;3.35;;;1.50;;
18499;SDS011;9379;52.134;11.576;2022-10-04T08:32:01;6.75;;;2.40;;
18499;SDS011;9379;52.134;11.576;2022-10-04T08:34:37;1.85;;;1.65;;
18499;SDS011;9379;52.134;11.576;2022-10-04T08:37:22;7.82;;;2.45;;
18499;SDS011;9379;52.134;11.576;2022-10-04T08:40:03;5.03;;;1.92;;
18499;SDS011;9379;52.134;11.576;2022-10-04T08:46:01;3.60;;;2.63;;
18499;SDS011;9379;52.134;11.576;2022-10-04T08:52:20;4.50;;;2.20;;
18499;SDS011;9379;52.134;11.576;2022-10-04T08:55:19;2.40;;;1.58;;
18499;SDS011;9379;52.134;11.576;2022-10-04T08:58:14;3.13;;;1.65;;
18499;SDS011;9379;52.134;11.576;2022-10-04T09:01:08;5.32;;;1.35;;
18499;SDS011;9379;52.134;11.576;2022-10-04T09:06:56;7.13;;;2.58;;
18499;SDS011;9379;52.134;11.576;2022-10-04T09:09:44;4.82;;;4.13;;
18499;SDS011;9379;52.134;11.576;2022-10-04T09:12:31;7.63;;;2.28;;
18499;SDS011;9379;52.134;11.576;2022-10-04T09:15:14;4.55;;;2.95;;
18499;SDS011;9379;52.134;11.576;2022-10-04T09:17:53;5.43;;;2.63;;
18499;SDS011;9379;52.134;11.576;2022-10-04T09:20:28;2.17;;;1.65;;
18499;SDS011;9379;52.134;11.576;2022-10-04T09:23:11;5.15;;;2.35;;
18499;SDS011;9379;52.134;11.576;2022-10-04T09:26:03;4.32;;;2.30;;
18499;SDS011;9379;52.134;11.576;2022-10-04T09:29:05;3.05;;;2.85;;
18499;SDS011;9379;52.134;11.576;2022-10-04T09:31:51;3.08;;;1.83;;
18499;SDS011;9379;52.134;11.576;2022-10-04T09:34:44;2.75;;;2.00;;
18499;SDS011;9379;52.134;11.576;2022-10-04T09:37:32;2.78;;;1.48;;
18499;SDS011;9379;52.134;11.576;2022-10-04T09:40:35;1.77;;;1.38;;
18499;SDS011;9379;52.134;11.576;2022-10-04T09:46:28;5.75;;;2.08;;
18499;SDS011;9379;52.134;11.576;2022-10-04T09:49:19;6.93;;;3.08;;
18499;SDS011;9379;52.134;11.576;2022-10-04T09:52:03;2.28;;;1.85;;
18499;SDS011;9379;52.134;11.576;2022-10-04T09:54:55;4.65;;;1.67;;
18499;SDS011;9379;52.134;11.576;2022-10-04T09:57:44;6.65;;;1.50;;
18499;SDS011;9379;52.134;11.576;2022-10-04T10:00:22;9.02;;;2.22;;
18499;SDS011;9379;52.134;11.576;2022-10-04T10:06:12;5.00;;;1.90;;
18499;SDS011;9379;52.134;11.576;2022-10-04T10:09:04;2.50;;;1.80;;
18499;SDS011;9379;52.134;11.576;2022-10-04T10:11:42;7.68;;;3.28;;
18499;SDS011;9379;52.134;11.576;2022-10-04T10:14:50;3.92;;;1.45;;
18499;SDS011;9379;52.134;11.576;2022-10-04T10:17:28;5.00;;;1.20;;
18499;SDS011;9379;52.134;11.576;2022-10-04T10:32:37;3.45;;;1.73;;
18499;SDS011;9379;52.134;11.576;2022-10-04T10:35:25;1.70;;;1.60;;
18499;SDS011;9379;52.134;11.576;2022-10-04T10:38:07;4.22;;;2.25;;
18499;SDS011;9379;52.134;11.576;2022-10-04T10:41:03;1.85;;;1.00;;
18499;SDS011;9379;52.134;11.576;2022-10-04T10:43:59;2.35;;;1.27;;
18499;SDS011;9379;52.134;11.576;2022-10-04T10:46:52;4.10;;;2.03;;
18499;SDS011;9379;52.134;11.576;2022-10-04T10:49:36;4.40;;;1.65;;
18499;SDS011;9379;52.134;11.576;2022-10-04T10:52:15;3.40;;;1.15;;
18499;SDS011;9379;52.134;11.576;2022-10-04T10:55:27;1.55;;;1.33;;
18499;SDS011;9379;52.134;11.576;2022-10-04T10:58:07;9.07;;;1.65;;
18499;SDS011;9379;52.134;11.576;2022-10-04T11:00:58;1.45;;;1.35;;
18499;SDS011;9379;52.134;11.576;2022-10-04T11:03:59;7.78;;;2.30;;
18499;SDS011;9379;52.134;11.576;2022-10-04T11:06:52;2.20;;;1.02;;
18499;SDS011;9379;52.134;11.576;2022-10-04T11:09:44;4.90;;;1.40;;
18499;SDS011;9379;52.134;11.576;2022-10-04T11:12:53;4.10;;;1.00;;
18499;SDS011;9379;52.134;11.576;2022-10-04T11:15:39;1.83;;;0.82;;
18499;SDS011;9379;52.134;11.576;2022-10-04T11:18:37;1.73;;;1.00;;
18499;SDS011;9379;52.134;11.576;2022-10-04T11:21:59;0.68;;;0.68;;
18499;SDS011;9379;52.134;11.576;2022-10-04T11:25:01;2.90;;;1.17;;
18499;SDS011;9379;52.134;11.576;2022-10-04T11:27:44;6.78;;;2.30;;
18499;SDS011;9379;52.134;11.576;2022-10-04T11:30:19;2.00;;;0.63;;
18499;SDS011;9379;52.134;11.576;2022-10-04T11:35:57;1.15;;;0.93;;
18499;SDS011;9379;52.134;11.576;2022-10-04T11:38:54;3.25;;;1.23;;
18499;SDS011;9379;52.134;11.576;2022-10-04T11:41:40;0.82;;;0.70;;
18499;SDS011;9379;52.134;11.576;2022-10-04T11:44:25;3.53;;;2.10;;
18499;SDS011;9379;52.134;11.576;2022-10-04T11:47:11;0.57;;;0.43;;
18499;SDS011;9379;52.134;11.576;2022-10-04T11:49:54;3.25;;;1.15;;
18499;SDS011;9379;52.134;11.576;2022-10-04T11:55:53;1.63;;;1.20;;
18499;SDS011;9379;52.134;11.576;2022-10-04T11:58:48;3.22;;;0.73;;
18499;SDS011;9379;52.134;11.576;2022-10-04T12:01:38;6.20;;;1.17;;
18499;SDS011;9379;52.134;11.576;2022-10-04T12:07:24;1.20;;;0.65;;
18499;SDS011;9379;52.134;11.576;2022-10-04T12:10:21;1.58;;;0.70;;
18499;SDS011;9379;52.134;11.576;2022-10-04T12:15:51;3.10;;;1.67;;
18499;SDS011;9379;52.134;11.576;2022-10-04T12:21:35;1.90;;;0.90;;
18499;SDS011;9379;52.134;11.576;2022-10-04T12:27:18;1.08;;;0.60;;
18499;SDS011;9379;52.134;11.576;2022-10-04T12:30:08;0.63;;;0.63;;
18499;SDS011;9379;52.134;11.576;2022-10-04T12:32:51;1.65;;;0.90;;
18499;SDS011;9379;52.134;11.576;2022-10-04T12:35:30;5.28;;;0.93;;
18499;SDS011;9379;52.134;11.576;2022-10-04T12:38:11;2.25;;;1.42;;
18499;SDS011;9379;52.134;11.576;2022-10-04T12:40:47;2.28;;;0.90;;
18499;SDS011;9379;52.134;11.576;2022-10-04T12:43:22;1.60;;;0.85;;
18499;SDS011;9379;52.134;11.576;2022-10-04T12:46:01;2.63;;;1.13;;
18499;SDS011;9379;52.134;11.576;2022-10-04T12:48:41;2.15;;;0.70;;
18499;SDS011;9379;52.134;11.576;2022-10-04T12:51:18;1.10;;;1.00;;
18499;SDS011;9379;52.134;11.576;2022-10-04T12:53:57;0.65;;;0.63;;
18499;SDS011;9379;52.134;11.576;2022-10-04T12:56:40;8.55;;;1.60;;
18499;SDS011;9379;52.134;11.576;2022-10-04T12:59:16;0.95;;;0.70;;
18499;SDS011;9379;52.134;11.576;2022-10-04T13:01:58;0.88;;;0.65;;
18499;SDS011;9379;52.134;11.576;2022-10-04T13:04:36;0.70;;;0.57;;
18499;SDS011;9379;52.134;11.576;2022-10-04T13:07:23;2.60;;;0.90;;
18499;SDS011;9379;52.134;11.576;2022-10-04T13:10:08;1.33;;;1.20;;
18499;SDS011;9379;52.134;11.576;2022-10-04T13:12:59;2.30;;;1.00;;
18499;SDS011;9379;52.134;11.576;2022-10-04T13:16:05;2.25;;;1.40;;
18499;SDS011;9379;52.134;11.576;2022-10-04T13:18:41;0.68;;;0.68;;
18499;SDS011;9379;52.134;11.576;2022-10-04T13:21:17;1.60;;;1.15;;
18499;SDS011;9379;52.134;11.576;2022-10-04T13:23:53;4.22;;;0.70;;
18499;SDS011;9379;52.134;11.576;2022-10-04T13:26:40;0.88;;;0.60;;
18499;SDS011;9379;52.134;11.576;2022-10-04T13:29:14;0.60;;;0.60;;
18499;SDS011;9379;52.134;11.576;2022-10-04T13:31:49;3.35;;;2.65;;
18499;SDS011;9379;52.134;11.576;2022-10-04T13:34:24;4.07;;;1.58;;
18499;SDS011;9379;52.134;11.576;2022-10-04T13:37:03;1.38;;;0.98;;
18499;SDS011;9379;52.134;11.576;2022-10-04T13:39:46;0.90;;;0.70;;
18499;SDS011;9379;52.134;11.576;2022-10-04T13:42:36;1.55;;;0.93;;
18499;SDS011;9379;52.134;11.576;2022-10-04T13:45:31;1.50;;;0.70;;
18499;SDS011;9379;52.134;11.576;2022-10-04T13:51:18;2.13;;;1.42;;
18499;SDS011;9379;52.134;11.576;2022-10-04T13:53:56;1.17;;;0.77;;
18499;SDS011;9379;52.134;11.576;2022-10-04T13:56:55;0.98;;;0.73;;
18499;SDS011;9379;52.134;11.576;2022-10-04T13:59:28;1.05;;;1.00;;
18499;SDS011;9379;52.134;11.576;2022-10-04T14:05:26;3.30;;;1.35;;
18499;SDS011;9379;52.134;11.576;2022-10-04T14:08:13;1.65;;;1.00;;
18499;SDS011;9379;52.134;11.576;2022-10-04T14:11:03;1.50;;;1.05;;
18499;SDS011;9379;52.134;11.576;2022-10-04T14:14:09;1.58;;;0.85;;
18499;SDS011;9379;52.134;11.576;2022-10-04T14:19:53;4.18;;;1.77;;
18499;SDS011;9379;52.134;11.576;2022-10-04T14:22:54;3.25;;;1.63;;
18499;SDS011;9379;52.134;11.576;2022-10-04T14:28:58;0.70;;;0.70;;
18499;SDS011;9379;52.134;11.576;2022-10-04T14:31:50;2.05;;;1.05;;
18499;SDS011;9379;52.134;11.576;2022-10-04T14:37:35;2.67;;;1.50;;
18499;SDS011;9379;52.134;11.576;2022-10-04T14:46:40;3.72;;;2.05;;
18499;SDS011;9379;52.134;11.576;2022-10-04T14:49:17;2.95;;;1.40;;
18499;SDS011;9379;52.134;11.576;2022-10-04T14:52:00;2.08;;;0.82;;
18499;SDS011;9379;52.134;11.576;2022-10-04T14:54:44;2.08;;;1.13;;
18499;SDS011;9379;52.134;11.576;2022-10-04T14:57:18;2.58;;;1.33;;
18499;SDS011;9379;52.134;11.576;2022-10-04T15:02:56;2.38;;;1.75;;
18499;SDS011;9379;52.134;11.576;2022-10-04T15:05:43;3.28;;;1.10;;
18499;SDS011;9379;52.134;11.576;2022-10-04T15:11:34;0.85;;;0.85;;
18499;SDS011;9379;52.134;11.576;2022-10-04T15:14:19;1.50;;;1.40;;
18499;SDS011;9379;52.134;11.576;2022-10-04T15:16:53;1.95;;;1.20;;
18499;SDS011;9379;52.134;11.576;2022-10-04T15:19:23;1.48;;;0.98;;
18499;SDS011;9379;52.134;11.576;2022-10-04T15:22:03;2.40;;;1.92;;
18499;SDS011;9379;52.134;11.576;2022-10-04T15:24:43;1.00;;;0.85;;
18499;SDS011;9379;52.134;11.576;2022-10-04T15:30:29;1.20;;;1.10;;
18499;SDS011;9379;52.134;11.576;2022-10-04T15:33:12;5.00;;;2.22;;
18499;SDS011;9379;52.134;11.576;2022-10-04T15:35:57;3.70;;;2.45;;
18499;SDS011;9379;52.134;11.576;2022-10-04T15:38:43;3.72;;;1.85;;
18499;SDS011;9379;52.134;11.576;2022-10-04T15:41:18;5.70;;;1.83;;
18499;SDS011;9379;52.134;11.576;2022-10-04T15:46:55;2.90;;;1.58;;
18499;SDS011;9379;52.134;11.576;2022-10-04T15:49:37;3.05;;;1.40;;
18499;SDS011;9379;52.134;11.576;2022-10-04T15:52:37;3.33;;;2.00;;
18499;SDS011;9379;52.134;11.576;2022-10-04T15:55:11;2.20;;;1.38;;
18499;SDS011;9379;52.134;11.576;2022-10-04T15:57:55;2.95;;;2.15;;
18499;SDS011;9379;52.134;11.576;2022-10-04T16:00:48;1.95;;;1.75;;
18499;SDS011;9379;52.134;11.576;2022-10-04T16:03:28;3.35;;;1.73;;
18499;SDS011;9379;52.134;11.576;2022-10-04T16:06:07;2.10;;;1.95;;
18499;SDS011;9379;52.134;11.576;2022-10-04T16:08:42;1.95;;;1.63;;
18499;SDS011;9379;52.134;11.576;2022-10-04T16:11:34;7.15;;;1.40;;
18499;SDS011;9379;52.134;11.576;2022-10-04T16:20:28;2.65;;;1.23;;
18499;SDS011;9379;52.134;11.576;2022-10-04T16:23:22;3.83;;;0.90;;
18499;SDS011;9379;52.134;11.576;2022-10-04T16:25:52;4.55;;;1.65;;
18499;SDS011;9379;52.134;11.576;2022-10-04T16:28:32;6.50;;;2.03;;
18499;SDS011;9379;52.134;11.576;2022-10-04T16:31:21;1.33;;;1.08;;
18499;SDS011;9379;52.134;11.576;2022-10-04T16:33:55;1.23;;;1.13;;
18499;SDS011;9379;52.134;11.576;2022-10-04T16:36:26;1.20;;;1.10;;
18499;SDS011;9379;52.134;11.576;2022-10-04T16:39:09;1.48;;;1.38;;
18499;SDS011;9379;52.134;11.576;2022-10-04T16:41:56;1.83;;;1.73;;
18499;SDS011;9379;52.134;11.576;2022-10-04T16:44:31;2.75;;;2.25;;
18499;SDS011;9379;52.134;11.576;2022-10-04T16:47:02;2.15;;;2.05;;
18499;SDS011;9379;52.134;11.576;2022-10-04T16:49:47;1.67;;;1.55;;
18499;SDS011;9379;52.134;11.576;2022-10-04T17:07:34;1.30;;;1.20;;
18499;SDS011;9379;52.134;11.576;2022-10-04T17:10:15;2.13;;;1.92;;
18499;SDS011;9379;52.134;11.576;2022-10-04T17:12:47;3.67;;;1.50;;
18499;SDS011;9379;52.134;11.576;2022-10-04T17:15:30;3.42;;;1.50;;
18499;SDS011;9379;52.134;11.576;2022-10-04T17:18:12;1.40;;;1.30;;
18499;SDS011;9379;52.134;11.576;2022-10-04T17:20:54;1.65;;;1.38;;
18499;SDS011;9379;52.134;11.576;2022-10-04T17:23:38;1.58;;;1.48;;
18499;SDS011;9379;52.134;11.576;2022-10-04T17:26:27;4.72;;;1.60;;
18499;SDS011;9379;52.134;11.576;2022-10-04T17:29:15;2.65;;;2.42;;
18499;SDS011;9379;52.134;11.576;2022-10-04T17:31:56;3.20;;;1.80;;
18499;SDS011;9379;52.134;11.576;2022-10-04T17:34:34;1.70;;;1.48;;
18499;SDS011;9379;52.134;11.576;2022-10-04T17:37:18;1.83;;;1.52;;
18499;SDS011;9379;52.134;11.576;2022-10-04T17:39:51;5.22;;;1.80;;
18499;SDS011;9379;52.134;11.576;2022-10-04T17:42:35;2.65;;;2.45;;
18499;SDS011;9379;52.134;11.576;2022-10-04T17:45:26;2.03;;;1.85;;
18499;SDS011;9379;52.134;11.576;2022-10-04T17:48:07;1.63;;;1.52;;